SBCT/CWB METAR and TAF weather

Enter ICAO airport designator
Station Type Date Time Source
SBCT METAR 2019/08/23 15:00 UTC NOAA

SBCT 231500Z 29006KT 9999 SCT015 15/11 Q1024


Station Type Date Time Source
SBCT Decoded METAR 2019/08/23 15:00 UTC NOAA

Station name not available
Aug 23, 2019 - 11:00 AM EDT / 2019.08.23 1500 UTC
Wind: from the WNW (290 degrees) at 7 MPH (6 KT):0
Visibility: greater than 7 mile(s):0
Sky conditions: partly cloudy
Temperature: 59 F (15 C)
Dew Point: 51 F (11 C)
Relative Humidity: 76%
Pressure (altimeter): 30.24 in. Hg (1024 hPa)
ob: SBCT 231500Z 29006KT 9999 SCT015 15/11 Q1024
cycle: 15

Station Type Date Time Source
SBCT TAF 2019/08/23 12:57 UTC NOAA

TAF SBCT 230900Z 2312/2412 07007KT 9999 BKN006 TX16/2318Z TN08/2409Z
BECMG 2312/2314 BKN012
BECMG 2316/2318 SCT015
BECMG 2322/2324 11006KT BKN004
RMK PDJ

Example: see airport list